Time;durP1;ratioP1;P1;durP2;ratioP2;P2;SDS_P1;SDS_P2;PMS_P1;PMS_P2;Temp;Humidity;BMP_temperature;BMP_pressure;BME280_temperature;BME280_humidity;BME280_pressure;Samples;Min_cycle;Max_cycle;Signal;HPM_P1;HPM_P2
2022/07/13 00:00:50;;;;;;;3.55;2.20;;;;;;;14.45;90.46;100541.13;5029637;28;20041;-78
2022/07/13 00:03:15;;;;;;;4.82;2.33;;;;;;;14.37;91.48;100537.00;5029860;28;20037;-78
2022/07/13 00:05:41;;;;;;;5.28;2.25;;;;;;;14.37;91.09;100545.38;5029757;28;20123;-78
2022/07/13 00:08:06;;;;;;;3.83;2.30;;;;;;;14.33;90.93;100544.69;5030021;28;20112;-78
2022/07/13 00:10:32;;;;;;;4.00;2.50;;;;;;;14.35;90.67;100537.47;5008189;28;20026;-78
2022/07/13 00:12:57;;;;;;;3.28;2.30;;;;;;;14.32;90.70;100545.91;5016269;28;20484;-77
2022/07/13 00:15:23;;;;;;;2.95;2.10;;;;;;;14.35;90.19;100537.47;5030045;28;20061;-78
2022/07/13 00:17:49;;;;;;;3.03;2.10;;;;;;;14.41;89.96;100534.88;5029705;28;20116;-78
2022/07/13 00:20:14;;;;;;;5.05;2.45;;;;;;;14.30;91.52;100534.44;5030116;28;20056;-78
2022/07/13 00:22:40;;;;;;;4.47;2.53;;;;;;;14.28;91.18;100539.66;5000408;28;20021;-78
2022/07/13 00:25:06;;;;;;;4.28;2.33;;;;;;;14.36;90.52;100539.00;5034050;28;20516;-78
2022/07/13 00:27:32;;;;;;;3.45;2.40;;;;;;;14.44;90.00;100545.91;5033603;28;20040;-78
2022/07/13 00:29:57;;;;;;;2.90;2.20;;;;;;;14.46;88.86;100542.69;5033574;28;20033;-78
2022/07/13 00:32:24;;;;;;;4.00;2.30;;;;;;;14.45;88.45;100541.13;5033480;28;20037;-78
2022/07/13 00:34:49;;;;;;;3.13;2.40;;;;;;;14.31;90.17;100520.03;5033472;28;20037;-78
2022/07/13 00:37:15;;;;;;;4.07;2.30;;;;;;;14.33;88.67;100539.09;5033439;28;20028;-78
2022/07/13 00:39:41;;;;;;;3.30;2.50;;;;;;;14.27;89.01;100532.56;5033411;28;20116;-78
2022/07/13 00:42:06;;;;;;;3.75;2.30;;;;;;;14.30;88.63;100534.44;5033580;28;20056;-78
2022/07/13 00:44:32;;;;;;;3.92;2.85;;;;;;;14.22;88.68;100531.09;5015758;28;20044;-78
2022/07/13 00:46:57;;;;;;;3.58;2.42;;;;;;;14.24;87.99;100531.44;5014788;28;20037;-78
2022/07/13 00:49:23;;;;;;;6.32;2.40;;;;;;;14.25;88.25;100535.00;5015913;28;20083;-78
2022/07/13 00:51:49;;;;;;;3.25;2.30;;;;;;;14.23;88.08;100529.09;5015177;28;20037;-78
2022/07/13 00:54:16;;;;;;;4.80;2.33;;;;;;;14.17;89.16;100531.66;5015243;28;20437;-78
2022/07/13 00:56:41;;;;;;;3.50;2.33;;;;;;;14.18;88.09;100526.88;5015455;28;20478;-78
2022/07/13 00:59:07;;;;;;;3.17;2.40;;;;;;;14.18;88.25;100535.25;5015137;28;20083;-78
2022/07/13 01:01:33;;;;;;;3.38;2.47;;;;;;;14.18;88.11;100535.25;5009434;28;20037;-78
2022/07/13 03:23:15;;;;;;;5.28;3.17;;;;;;;13.37;94.97;100521.91;5046318;28;20052;-77
2022/07/13 03:25:41;;;;;;;3.92;3.10;;;;;;;13.38;94.57;100518.69;5049192;28;20045;-78
2022/07/13 03:28:07;;;;;;;4.50;3.08;;;;;;;13.33;94.15;100508.09;5041993;28;20033;-78
2022/07/13 03:30:33;;;;;;;5.00;2.88;;;;;;;13.39;93.97;100519.44;5032357;28;20037;-78
2022/07/13 03:32:59;;;;;;;4.90;2.85;;;;;;;13.39;94.46;100525.00;5032379;28;20572;-78
2022/07/13 03:35:25;;;;;;;4.95;3.08;;;;;;;13.28;96.30;100521.78;5031901;28;20033;-78
2022/07/13 03:37:51;;;;;;;5.60;3.05;;;;;;;13.29;97.28;100518.56;5031524;28;20048;-78
2022/07/13 03:40:20;;;;;;;3.78;3.20;;;;;;;13.33;96.87;100530.38;5030463;28;20048;-78
2022/07/13 03:42:49;;;;;;;5.45;3.00;;;;;;;13.34;97.01;100526.38;5011737;28;20051;-78
2022/07/13 03:45:15;;;;;;;3.95;2.95;;;;;;;13.33;97.02;100529.59;5035098;28;20418;-78
2022/07/13 03:47:41;;;;;;;4.22;2.60;;;;;;;13.33;95.74;100526.81;5031962;28;20032;-78
2022/07/13 03:50:08;;;;;;;3.22;2.70;;;;;;;13.36;95.68;100526.69;5032287;28;20033;-78
2022/07/13 03:52:34;;;;;;;3.95;2.85;;;;;;;13.36;97.25;100526.69;4998685;28;20643;-79
2022/07/13 03:55:00;;;;;;;5.88;3.35;;;;;;;13.38;100.00;100520.69;5032076;28;20511;-78
2022/07/13 03:57:26;;;;;;;5.57;3.30;;;;;;;13.30;99.81;100516.56;5036066;28;20037;-78
2022/07/13 03:59:52;;;;;;;4.53;3.30;;;;;;;13.37;98.84;100528.25;5036563;28;20080;-78
2022/07/13 04:02:18;;;;;;;4.88;3.50;;;;;;;13.42;98.02;100521.34;5033766;28;20045;-78
2022/07/13 04:04:44;;;;;;;4.88;3.78;;;;;;;13.49;97.40;100521.91;5038604;28;20087;-78
2022/07/13 04:07:10;;;;;;;5.07;3.65;;;;;;;13.61;96.76;100523.16;5041548;28;20044;-78
2022/07/13 04:09:36;;;;;;;4.90;3.63;;;;;;;13.65;98.14;100512.66;5035789;28;20141;-78
2022/07/13 04:12:02;;;;;;;4.35;3.10;;;;;;;13.68;98.74;100514.56;5033998;28;20127;-78
2022/07/13 04:14:27;;;;;;;5.15;3.15;;;;;;;13.77;97.91;100511.09;5035929;28;20047;-78
2022/07/13 04:16:53;;;;;;;6.28;3.05;;;;;;;13.85;97.32;100499.25;5035523;28;20132;-78
2022/07/13 04:19:19;;;;;;;6.40;3.70;;;;;;;13.87;98.36;100507.19;5035765;28;20116;-78
2022/07/13 04:21:45;;;;;;;4.80;3.30;;;;;;;13.89;98.53;100518.66;5034920;28;20041;-78
2022/07/13 04:24:11;;;;;;;5.25;3.20;;;;;;;13.94;97.49;100516.09;5052981;28;20045;-78
2022/07/13 04:26:37;;;;;;;5.38;3.00;;;;;;;13.99;97.20;100521.09;5053423;28;20408;-78
2022/07/13 04:29:02;;;;;;;4.82;3.17;;;;;;;14.10;96.45;100525.56;5053196;28;20087;-78
2022/07/13 04:31:29;;;;;;;4.43;2.85;;;;;;;14.13;95.63;100524.66;5030190;28;20060;-78
2022/07/13 04:33:55;;;;;;;7.43;3.10;;;;;;;14.18;94.76;100515.72;5031215;28;20535;-78
2022/07/13 04:36:21;;;;;;;5.03;3.20;;;;;;;14.21;93.83;100517.59;5015385;28;20041;-78
2022/07/13 04:38:47;;;;;;;4.75;3.00;;;;;;;14.38;93.11;100535.78;5015698;28;20531;-78
2022/07/13 04:41:13;;;;;;;4.40;3.42;;;;;;;14.43;93.08;100526.84;5027935;28;20703;-78
2022/07/13 04:43:39;;;;;;;5.85;3.85;;;;;;;14.54;92.85;100530.03;5035218;28;20504;-78
2022/07/13 04:46:13;;;;;;;4.78;3.40;;;;;;;14.68;92.59;100534.34;5035392;28;20029;-79
2022/07/13 04:48:39;;;;;;;3.53;3.22;;;;;;;14.80;91.48;100525.88;5032797;28;20037;-79
2022/07/13 04:51:05;;;;;;;4.38;2.85;;;;;;;14.96;90.12;100512.97;5053044;28;20033;-78
2022/07/13 04:53:32;;;;;;;6.55;3.35;;;;;;;14.99;89.11;100521.22;5035512;28;20049;-79
2022/07/13 04:55:57;;;;;;;4.15;3.08;;;;;;;15.08;88.94;100528.91;5018830;28;20041;-79
2022/07/13 04:58:23;;;;;;;3.63;2.80;;;;;;;15.22;88.51;100536.72;5035316;28;20041;-79
2022/07/13 05:00:49;;;;;;;5.90;3.03;;;;;;;15.31;87.61;100542.38;5050984;28;20407;-79
2022/07/13 05:03:15;;;;;;;4.97;3.00;;;;;;;15.42;87.86;100534.34;5035194;28;20049;-79
2022/07/13 05:05:40;;;;;;;4.72;2.90;;;;;;;15.62;85.99;100537.59;5018809;28;20063;-79
2022/07/13 05:08:06;;;;;;;4.05;2.90;;;;;;;15.92;81.52;100547.19;5034884;28;20040;-79
2022/07/13 05:10:32;;;;;;;5.45;2.80;;;;;;;16.00;81.84;100540.06;5002353;28;20125;-79
2022/07/13 05:12:57;;;;;;;4.13;2.70;;;;;;;16.13;80.89;100542.75;5034825;28;20465;-79
2022/07/13 05:15:25;;;;;;;3.95;2.47;;;;;;;16.34;79.93;100534.22;5019018;28;20489;-79
2022/07/13 05:17:51;;;;;;;3.65;2.67;;;;;;;16.47;77.44;100542.47;5015822;28;20124;-79
2022/07/13 05:20:18;;;;;;;4.13;2.80;;;;;;;16.64;77.72;100543.00;5015291;28;20042;-79
2022/07/13 05:22:51;;;;;;;2.88;2.47;;;;;;;16.88;75.12;100540.34;4999158;28;20042;-79
2022/07/13 05:25:20;;;;;;;4.28;2.30;;;;;;;17.03;74.35;100544.03;5014908;28;20054;-79
2022/07/13 05:27:46;;;;;;;2.97;2.40;;;;;;;17.50;72.92;100552.69;5049925;28;20551;-79
2022/07/13 05:30:12;;;;;;;3.70;2.30;;;;;;;17.59;71.16;100555.47;5017272;28;20123;-79
2022/07/13 05:32:38;;;;;;;4.10;2.40;;;;;;;17.72;70.52;100555.28;5034006;28;20045;-79
2022/07/13 05:35:03;;;;;;;3.05;2.47;;;;;;;17.94;70.48;100552.22;5051686;28;20159;-79
2022/07/13 05:37:30;;;;;;;3.17;2.70;;;;;;;18.07;69.55;100553.56;5034028;28;20037;-79
2022/07/13 05:39:56;;;;;;;5.32;2.40;;;;;;;18.33;67.73;100553.88;5033513;28;20041;-79
2022/07/13 05:42:21;;;;;;;5.18;2.55;;;;;;;18.56;67.74;100557.97;5033942;28;20492;-78
2022/07/13 05:44:47;;;;;;;4.57;2.40;;;;;;;18.80;66.88;100549.50;5033917;28;20063;-78
2022/07/13 05:47:13;;;;;;;4.63;2.60;;;;;;;18.99;66.09;100550.88;5013931;28;20049;-80
2022/07/13 05:49:38;;;;;;;3.60;2.38;;;;;;;19.06;64.99;100556.13;4997726;28;20111;-79
2022/07/13 05:52:06;;;;;;;3.22;2.38;;;;;;;19.28;64.10;100556.53;4997859;28;20039;-79
2022/07/13 05:54:35;;;;;;;5.45;2.55;;;;;;;19.38;62.92;100549.53;5013740;28;20038;-79
2022/07/13 05:57:01;;;;;;;4.35;2.50;;;;;;;19.52;63.64;100546.00;5013930;28;20165;-78
2022/07/13 05:59:27;;;;;;;2.83;2.00;;;;;;;19.60;62.87;100554.03;5034446;28;20123;-80
2022/07/13 06:01:53;;;;;;;3.25;2.25;;;;;;;19.90;63.42;100549.88;5031907;28;20123;-80
2022/07/13 06:04:19;;;;;;;2.85;2.30;;;;;;;20.01;60.63;100547.25;5049564;28;20394;-79
2022/07/13 06:06:45;;;;;;;3.28;2.20;;;;;;;20.15;60.40;100549.25;5049572;28;20544;-79
2022/07/13 06:09:11;;;;;;;3.05;2.00;;;;;;;20.56;59.29;100550.06;5030971;28;20037;-78
2022/07/13 06:11:37;;;;;;;3.67;2.28;;;;;;;20.66;59.51;100545.06;5031793;28;20055;-78
2022/07/13 06:14:02;;;;;;;3.50;2.03;;;;;;;20.84;58.20;100544.75;5049347;28;20045;-78
2022/07/13 06:16:28;;;;;;;9.35;3.40;;;;;;;21.05;58.42;100545.50;5049378;28;20069;-79
2022/07/13 06:18:54;;;;;;;3.60;2.45;;;;;;;21.50;56.80;100543.91;5048453;28;20439;-78
2022/07/13 06:21:19;;;;;;;3.45;2.20;;;;;;;21.74;58.25;100550.78;5049691;28;20554;-79
2022/07/13 06:23:44;;;;;;;3.88;1.92;;;;;;;21.57;56.32;100549.09;5031428;28;20044;-79
2022/07/13 06:26:10;;;;;;;5.35;2.08;;;;;;;21.99;55.16;100546.34;5049469;28;20519;-79
2022/07/13 06:28:36;;;;;;;3.75;2.05;;;;;;;21.82;54.88;100548.25;5031738;28;20029;-80
2022/07/13 06:31:01;;;;;;;4.95;2.00;;;;;;;22.25;53.48;100552.66;5050576;28;20523;-80
2022/07/13 06:33:27;;;;;;;2.78;2.10;;;;;;;22.26;53.12;100551.41;5051079;28;20033;-80
2022/07/13 06:35:52;;;;;;;3.97;2.00;;;;;;;22.77;53.09;100552.41;5032879;28;20044;-80
2022/07/13 06:38:18;;;;;;;3.47;2.00;;;;;;;22.58;49.79;100542.78;5050976;28;20043;-80
2022/07/13 06:40:46;;;;;;;2.22;1.80;;;;;;;22.52;50.04;100547.66;5050689;28;20103;-80
2022/07/13 06:43:12;;;;;;;2.75;1.63;;;;;;;22.77;49.47;100544.69;5032694;28;20503;-80
2022/07/13 06:45:37;;;;;;;2.72;1.88;;;;;;;23.04;49.12;100546.06;5050470;28;20037;-81
2022/07/13 06:48:03;;;;;;;2.60;1.85;;;;;;;23.10;47.61;100543.22;5050437;28;20040;-79
2022/07/13 06:50:28;;;;;;;5.13;2.00;;;;;;;23.22;47.65;100533.47;5050748;28;20098;-80
2022/07/13 06:52:54;;;;;;;4.18;1.80;;;;;;;23.40;47.13;100546.38;5050603;28;20060;-80
2022/07/13 06:55:19;;;;;;;5.47;2.00;;;;;;;23.46;46.52;100544.31;5050288;28;20047;-80
2022/07/13 06:57:45;;;;;;;6.07;1.95;;;;;;;23.92;44.28;100540.97;5016303;28;20381;-80
2022/07/13 07:00:11;;;;;;;6.55;2.00;;;;;;;24.19;44.71;100528.03;5048716;28;20404;-80
2022/07/13 07:02:36;;;;;;;4.03;2.10;;;;;;;24.07;44.41;100536.56;5030117;28;20088;-80
2022/07/13 07:05:09;;;;;;;2.72;1.70;;;;;;;23.94;43.65;100544.81;5031829;28;20583;-80
2022/07/13 07:07:34;;;;;;;2.83;1.80;;;;;;;24.29;43.08;100526.47;5050623;28;20106;-80
2022/07/13 07:10:00;;;;;;;8.52;1.50;;;;;;;24.42;42.00;100523.84;5069920;28;20044;-80
2022/07/13 07:12:25;;;;;;;2.92;1.67;;;;;;;24.35;42.27;100521.53;5050366;28;20048;-80
2022/07/13 07:14:51;;;;;;;2.63;1.60;;;;;;;24.23;40.73;100503.03;5032353;28;20064;-79
2022/07/13 07:17:17;;;;;;;3.33;1.63;;;;;;;24.35;41.14;100519.47;5048244;28;20076;-80
2022/07/13 07:19:44;;;;;;;2.95;1.60;;;;;;;24.50;41.07;100516.34;5031822;28;20448;-79
2022/07/13 07:22:10;;;;;;;2.67;1.50;;;;;;;24.53;41.65;100512.47;5049743;28;20045;-80
2022/07/13 07:24:36;;;;;;;4.30;1.80;;;;;;;24.84;43.29;100502.75;5050002;28;20041;-80
2022/07/13 07:27:02;;;;;;;6.38;2.10;;;;;;;25.33;40.37;100512.25;5049689;28;20029;-80
2022/07/13 07:29:28;;;;;;;2.65;1.70;;;;;;;25.27;41.40;100511.53;5050077;28;20048;-79
2022/07/13 07:31:53;;;;;;;3.08;1.67;;;;;;;25.47;39.24;100505.44;5049204;28;20094;-80
2022/07/13 07:34:19;;;;;;;3.08;1.52;;;;;;;25.57;38.98;100505.88;5049558;28;20136;-80
2022/07/13 07:36:45;;;;;;;2.97;1.80;;;;;;;25.90;37.67;100512.00;5050069;28;20123;-79
2022/07/13 07:39:12;;;;;;;2.33;1.50;;;;;;;25.57;37.93;100500.19;5049489;28;20378;-80
2022/07/13 07:41:38;;;;;;;4.32;1.60;;;;;;;25.65;37.78;100501.16;5031712;28;20516;-80
2022/07/13 07:44:03;;;;;;;2.00;1.63;;;;;;;25.81;37.96;100501.00;5049401;28;20045;-80
2022/07/13 07:46:29;;;;;;;3.20;1.65;;;;;;;26.21;38.02;100498.50;5049981;28;20121;-80
2022/07/13 07:48:55;;;;;;;5.47;1.70;;;;;;;26.13;36.05;100494.69;5049601;28;20049;-80
2022/07/13 07:51:21;;;;;;;4.20;1.70;;;;;;;26.11;35.47;100498.09;5034245;28;20569;-80
2022/07/13 07:53:46;;;;;;;4.50;1.30;;;;;;;25.95;34.93;100496.22;5069260;28;20119;-80
2022/07/13 07:56:12;;;;;;;4.53;1.58;;;;;;;26.21;35.87;100502.13;5051196;28;20040;-80
2022/07/13 07:58:38;;;;;;;2.92;1.70;;;;;;;26.43;35.01;100492.56;5065937;28;20086;-80
2022/07/13 08:01:04;;;;;;;4.90;1.40;;;;;;;26.54;35.06;100483.88;5053571;28;20049;-80
2022/07/13 08:03:29;;;;;;;3.15;1.40;;;;;;;26.63;33.63;100496.97;5049351;28;20044;-80
2022/07/13 08:05:57;;;;;;;1.67;1.20;;;;;;;26.60;33.02;100487.44;5031115;28;20167;-80
2022/07/13 08:08:23;;;;;;;2.17;1.15;;;;;;;26.82;34.11;100492.81;5049402;28;20056;-81
2022/07/13 08:10:49;;;;;;;2.70;1.40;;;;;;;26.68;33.75;100488.34;5032083;28;20036;-81
2022/07/13 08:13:14;;;;;;;1.73;1.23;;;;;;;27.26;32.92;100485.69;5017301;28;20118;-80
2022/07/13 08:15:40;;;;;;;1.92;1.40;;;;;;;27.32;33.33;100494.91;5013407;28;20112;-81
2022/07/13 08:18:05;;;;;;;2.30;1.40;;;;;;;27.46;34.10;100487.16;5030246;28;20033;-79
2022/07/13 08:20:31;;;;;;;2.50;1.70;;;;;;;27.59;32.80;100495.78;5043394;28;20048;-81
2022/07/13 08:22:56;;;;;;;3.55;1.42;;;;;;;27.17;33.36;100499.56;5047765;28;20037;-80
2022/07/13 08:25:23;;;;;;;2.50;1.40;;;;;;;27.41;32.64;100501.50;5047133;28;20049;-79
2022/07/13 08:27:49;;;;;;;2.33;1.40;;;;;;;27.49;32.94;100491.81;5047813;28;20053;-81
2022/07/13 08:30:14;;;;;;;2.25;1.20;;;;;;;27.68;30.24;100501.06;5049634;28;20126;-81
2022/07/13 08:32:40;;;;;;;2.13;1.20;;;;;;;27.63;29.53;100493.38;5048509;28;20080;-81
2022/07/13 08:40:39;;;;;;;1.33;1.00;;;;;;;28.05;29.56;100490.78;5013731;28;20605;-82
2022/07/13 08:43:04;;;;;;;2.85;1.40;;;;;;;27.77;30.22;100486.38;5059431;28;20096;-81
2022/07/13 08:45:31;;;;;;;2.67;1.40;;;;;;;27.81;30.09;100491.75;5034350;28;20061;-80
2022/07/13 08:47:57;;;;;;;4.22;1.40;;;;;;;27.68;30.85;100481.09;5034734;28;20059;-81
2022/07/13 08:50:23;;;;;;;2.00;1.40;;;;;;;27.51;32.12;100477.78;5034273;28;20044;-80
2022/07/13 08:52:49;;;;;;;2.22;1.50;;;;;;;27.87;31.13;100480.25;5018297;28;20041;-80
2022/07/13 08:55:15;;;;;;;1.52;1.10;;;;;;;28.06;30.29;100475.22;5052291;28;20461;-80
2022/07/13 08:57:41;;;;;;;2.33;1.15;;;;;;;28.24;30.15;100471.50;5017580;28;20048;-80
2022/07/13 09:00:10;;;;;;;2.78;1.27;;;;;;;27.87;29.24;100480.25;5034104;28;20094;-80
2022/07/13 09:02:36;;;;;;;2.38;1.25;;;;;;;27.78;29.41;100479.34;5052393;28;20419;-81
2022/07/13 09:05:06;;;;;;;1.63;1.23;;;;;;;28.18;29.87;100465.16;5049981;28;20034;-80
2022/07/13 09:07:35;;;;;;;1.58;1.00;;;;;;;28.22;30.61;100457.03;5017266;28;20044;-80
2022/07/13 09:10:02;;;;;;;3.50;1.20;;;;;;;28.39;28.76;100474.53;5058599;28;20040;-80
2022/07/13 09:12:28;;;;;;;1.45;0.90;;;;;;;28.44;29.66;100473.66;5070022;28;20040;-81
2022/07/13 09:14:58;;;;;;;1.20;1.00;;;;;;;28.59;28.78;100470.25;5036481;28;20060;-80
2022/07/13 09:17:34;;;;;;;1.75;1.00;;;;;;;28.72;29.09;100458.78;5068308;28;20036;-80
2022/07/13 09:20:03;;;;;;;2.10;1.30;;;;;;;29.05;28.11;100460.09;5042430;28;20124;-80
2022/07/13 09:22:29;;;;;;;1.42;1.13;;;;;;;29.13;29.28;100463.81;5069986;28;20106;-80
2022/07/13 09:24:55;;;;;;;1.35;1.02;;;;;;;29.06;28.39;100459.56;5040239;28;20044;-80
2022/07/13 09:27:23;;;;;;;3.05;1.15;;;;;;;29.12;28.22;100465.13;5051096;28;20047;-80
2022/07/13 09:29:49;;;;;;;2.85;1.17;;;;;;;28.49;27.93;100467.06;5025319;28;20056;-79
2022/07/13 09:32:15;;;;;;;2.70;1.20;;;;;;;28.73;27.49;100458.25;5036121;28;20028;-81
2022/07/13 09:34:50;;;;;;;2.42;1.00;;;;;;;28.65;28.20;100468.03;5053902;28;20617;-79
2022/07/13 09:37:18;;;;;;;1.25;1.15;;;;;;;28.28;29.30;100458.44;5047744;28;20032;-79
2022/07/13 09:40:01;;;;;;;1.92;1.00;;;;;;;28.69;28.64;100457.81;5060358;28;20021;-79
2022/07/13 09:42:28;;;;;;;2.33;1.10;;;;;;;28.76;28.28;100461.31;5049195;28;20037;-80
2022/07/13 09:47:47;;;;;;;2.25;1.10;;;;;;;29.04;28.82;100455.72;5059651;28;20025;-80
2022/07/13 09:50:13;;;;;;;2.38;0.88;;;;;;;29.64;27.58;100450.53;5040719;28;20063;-80
2022/07/13 09:52:38;;;;;;;1.88;1.17;;;;;;;28.96;28.53;100460.56;5046595;28;20040;-80
2022/07/13 09:55:06;;;;;;;2.15;0.90;;;;;;;29.32;27.68;100449.34;5038943;28;20047;-80
2022/07/13 09:57:33;;;;;;;2.72;1.00;;;;;;;29.07;28.04;100452.53;5017262;28;20040;-80
2022/07/13 09:59:59;;;;;;;1.58;1.15;;;;;;;29.43;27.10;100446.97;5022602;28;20131;-80
2022/07/13 10:02:26;;;;;;;1.85;1.05;;;;;;;29.09;27.75;100418.44;5050685;28;20101;-80
2022/07/13 10:04:53;;;;;;;2.25;1.10;;;;;;;29.39;27.11;100443.69;5055890;28;20523;-80
2022/07/13 10:07:18;;;;;;;1.55;1.05;;;;;;;29.08;27.73;100448.31;5023263;28;20407;-81
2022/07/13 10:09:44;;;;;;;0.98;0.85;;;;;;;29.16;27.38;100442.69;5023981;28;20053;-80
2022/07/13 10:12:10;;;;;;;2.00;1.30;;;;;;;29.46;27.49;100436.50;5032813;28;20068;-82
2022/07/13 10:14:37;;;;;;;1.45;1.00;;;;;;;28.69;28.91;100449.25;5038368;28;20036;-80
2022/07/13 10:17:22;;;;;;;2.72;1.30;;;;;;;28.31;29.22;100445.16;5050108;28;20033;-79
2022/07/13 10:20:23;;;;;;;1.85;1.17;;;;;;;29.10;29.99;100444.94;5037091;28;20480;-80
2022/07/13 10:22:48;;;;;;;1.70;0.98;;;;;;;29.49;28.31;100436.16;5041146;28;20403;-81
2022/07/13 10:25:16;;;;;;;1.77;1.10;;;;;;;29.37;27.63;100434.91;5023470;28;20040;-81
2022/07/13 10:27:41;;;;;;;2.83;1.10;;;;;;;29.29;28.48;100439.78;5067267;28;20067;-82
2022/07/13 10:30:08;;;;;;;2.13;1.13;;;;;;;29.53;28.08;100436.56;5055752;28;20061;-79
2022/07/13 10:32:39;;;;;;;1.73;1.20;;;;;;;29.52;27.80;100440.00;5065155;28;20522;-79
2022/07/13 10:35:09;;;;;;;1.85;1.05;;;;;;;29.00;28.13;100441.00;5056685;28;20040;-78
2022/07/13 10:38:00;;;;;;;2.40;1.10;;;;;;;28.76;28.37;100427.06;5043458;28;20068;-79
2022/07/13 10:40:27;;;;;;;2.85;1.30;;;;;;;28.64;28.38;100426.50;5059257;28;20048;-79
2022/07/13 10:43:03;;;;;;;2.03;1.10;;;;;;;28.99;29.97;100440.25;5065311;28;20290;-80
2022/07/13 10:48:22;;;;;;;1.77;1.30;;;;;;;29.84;28.85;100425.34;5036498;28;20041;-79
2022/07/13 10:50:54;;;;;;;1.33;1.10;;;;;;;30.42;26.86;100434.03;5048315;28;20045;-81
2022/07/13 10:53:21;;;;;;;2.58;1.30;;;;;;;30.23;27.92;100427.09;5015055;28;20045;-79
2022/07/13 10:55:47;;;;;;;2.38;0.98;;;;;;;30.79;27.32;100431.91;5030914;28;20102;-81
2022/07/13 10:58:49;;;;;;;2.75;1.10;;;;;;;30.68;28.10;100430.16;5030696;28;20496;-80
2022/07/13 11:01:36;;;;;;;2.45;1.10;;;;;;;30.59;26.79;100424.97;4990952;28;20069;-80
2022/07/13 11:04:03;;;;;;;4.03;1.05;;;;;;;30.04;28.32;100427.41;5008897;28;20041;-79
2022/07/13 11:06:29;;;;;;;2.75;1.33;;;;;;;30.13;27.54;100437.56;5014720;28;20033;-80
2022/07/13 11:09:10;;;;;;;1.67;1.10;;;;;;;30.42;26.49;100422.59;5045728;28;20043;-79
2022/07/13 11:11:44;;;;;;;3.53;1.02;;;;;;;30.29;26.38;100419.88;5012616;28;20033;-80
2022/07/13 11:14:41;;;;;;;2.47;1.20;;;;;;;30.77;26.87;100417.41;5014403;28;20536;-80
2022/07/13 11:17:20;;;;;;;1.45;1.20;;;;;;;31.41;26.53;100423.59;5047648;28;20131;-80
2022/07/13 11:19:58;;;;;;;3.80;1.40;;;;;;;31.32;24.66;100421.28;5047050;28;20048;-80
2022/07/13 11:22:26;;;;;;;2.05;1.15;;;;;;;31.02;26.00;100409.81;5047146;28;20041;-80
2022/07/13 11:25:15;;;;;;;1.75;1.10;;;;;;;30.74;26.29;100412.78;5047659;28;20045;-80
2022/07/13 11:28:05;;;;;;;3.15;1.25;;;;;;;29.47;27.76;100393.09;5013620;28;20048;-80
2022/07/13 11:30:34;;;;;;;2.65;1.30;;;;;;;30.42;28.06;100390.34;5047501;28;20052;-78
2022/07/13 11:33:00;;;;;;;2.53;1.20;;;;;;;30.72;26.90;100398.28;5030294;28;20025;-78
2022/07/13 11:35:25;;;;;;;3.78;1.20;;;;;;;30.30;27.64;100387.06;5030262;28;20033;-78
2022/07/13 11:37:52;;;;;;;4.22;1.13;;;;;;;29.89;28.22;100392.97;5048778;28;20087;-78
2022/07/13 11:40:30;;;;;;;3.75;1.25;;;;;;;30.42;27.72;100393.97;5047725;28;20041;-78
2022/07/13 11:42:59;;;;;;;1.90;1.13;;;;;;;30.42;27.32;100382.53;5045753;28;20041;-78
2022/07/13 11:45:32;;;;;;;2.08;0.80;;;;;;;30.47;26.83;100384.47;5047935;28;20496;-78
2022/07/13 11:48:03;;;;;;;3.65;1.13;;;;;;;29.97;27.12;100380.25;5031039;28;20099;-80
2022/07/13 11:50:50;;;;;;;2.75;1.05;;;;;;;29.74;28.39;100387.16;5047698;28;20040;-80
2022/07/13 11:53:21;;;;;;;1.75;1.20;;;;;;;30.30;27.62;100381.34;5048134;28;20518;-79
2022/07/13 11:55:47;;;;;;;1.65;1.02;;;;;;;29.99;27.46;100382.56;5026325;28;20073;-79
2022/07/13 11:58:31;;;;;;;1.90;1.10;;;;;;;29.80;27.17;100379.19;5046172;28;20338;-80
2022/07/13 12:00:58;;;;;;;1.17;1.10;;;;;;;30.27;27.34;100370.28;5013204;28;20099;-80
2022/07/13 12:03:33;;;;;;;3.45;1.10;;;;;;;29.95;26.96;100365.75;5047941;28;20115;-79
2022/07/13 12:06:09;;;;;;;2.17;1.10;;;;;;;29.60;27.83;100364.38;5049645;28;20048;-81
2022/07/13 12:08:37;;;;;;;2.15;1.17;;;;;;;29.99;28.06;100351.09;5014112;28;20044;-80
2022/07/13 12:11:04;;;;;;;3.90;1.25;;;;;;;30.69;27.40;100353.63;5048226;28;20506;-78
2022/07/13 12:13:32;;;;;;;2.90;1.20;;;;;;;30.73;28.46;100354.00;5031819;28;20068;-79
2022/07/13 12:15:57;;;;;;;3.45;1.00;;;;;;;30.63;27.13;100338.72;5031501;28;20048;-81
2022/07/13 12:18:23;;;;;;;1.92;1.20;;;;;;;30.97;27.36;100342.75;5033889;28;20024;-78
2022/07/13 12:20:49;;;;;;;3.10;1.27;;;;;;;31.28;26.58;100332.06;5051125;28;20051;-79
2022/07/13 12:23:14;;;;;;;3.17;0.90;;;;;;;30.90;26.10;100325.56;5032429;28;20051;-80
2022/07/13 12:25:40;;;;;;;2.10;1.08;;;;;;;31.13;25.27;100334.94;5032804;28;20053;-80
2022/07/13 12:28:08;;;;;;;1.98;0.90;;;;;;;31.30;25.95;100337.22;5016041;28;20293;-80
2022/07/13 12:30:37;;;;;;;2.40;1.23;;;;;;;31.23;26.64;100335.88;4999944;28;20042;-80
2022/07/13 12:33:09;;;;;;;2.05;1.10;;;;;;;31.64;25.58;100337.56;5033791;28;20037;-80
2022/07/13 12:35:41;;;;;;;1.27;1.05;;;;;;;31.33;26.10;100325.38;5034698;28;20037;-80
2022/07/13 12:38:16;;;;;;;3.17;1.23;;;;;;;31.52;26.02;100318.44;5053293;28;20503;-80
2022/07/13 12:40:49;;;;;;;2.53;1.20;;;;;;;31.37;26.41;100322.13;5035455;28;20052;-80
2022/07/13 12:43:19;;;;;;;1.73;0.93;;;;;;;31.50;26.05;100315.41;5035748;28;20446;-80
2022/07/13 12:45:49;;;;;;;3.80;1.20;;;;;;;31.54;24.74;100321.53;5034705;28;20674;-80
2022/07/13 12:48:16;;;;;;;2.47;1.13;;;;;;;31.37;25.70;100319.25;5035039;28;20041;-82
2022/07/13 12:50:54;;;;;;;1.45;1.10;;;;;;;31.46;25.45;100310.81;5035316;28;20048;-81
2022/07/13 12:53:19;;;;;;;2.05;1.25;;;;;;;31.58;24.01;100313.31;5018665;28;20049;-80
2022/07/13 12:55:53;;;;;;;1.17;1.05;;;;;;;31.98;25.14;100317.00;5052633;28;20063;-80
2022/07/13 12:58:19;;;;;;;1.70;0.95;;;;;;;31.73;25.84;100313.25;5052360;28;20057;-80
2022/07/13 13:00:45;;;;;;;3.17;1.10;;;;;;;31.38;25.82;100312.94;5052681;28;20052;-80
2022/07/13 13:03:10;;;;;;;1.40;1.15;;;;;;;31.30;24.80;100308.56;5052686;28;20041;-80
2022/07/13 13:05:36;;;;;;;1.63;0.98;;;;;;;31.15;26.82;100297.13;5034580;28;20036;-80
2022/07/13 13:08:02;;;;;;;1.27;0.90;;;;;;;31.84;25.33;100310.72;5052946;28;20071;-80
2022/07/13 13:10:30;;;;;;;1.88;1.10;;;;;;;31.62;24.94;100305.84;5034677;28;20115;-80
2022/07/13 13:12:56;;;;;;;2.40;1.20;;;;;;;31.25;25.01;100301.69;5052657;28;20083;-80
2022/07/13 13:15:23;;;;;;;1.85;1.30;;;;;;;30.62;25.53;100299.94;5014269;28;20077;-80
2022/07/13 13:17:49;;;;;;;2.10;1.30;;;;;;;30.95;26.41;100296.72;5035105;28;20045;-79
2022/07/13 13:20:15;;;;;;;1.77;1.20;;;;;;;31.60;25.22;100296.28;5051753;28;20416;-80
2022/07/13 13:22:40;;;;;;;3.50;1.30;;;;;;;31.72;25.04;100300.25;5034483;28;20049;-79
2022/07/13 13:25:07;;;;;;;2.70;1.13;;;;;;;31.81;26.32;100288.19;5050102;28;20175;-79
2022/07/13 13:27:32;;;;;;;2.90;1.20;;;;;;;31.62;25.58;100285.00;5052363;28;20523;-79
2022/07/13 13:32:42;;;;;;;1.52;1.20;;;;;;;31.69;25.25;100292.81;5023185;28;20041;-80
2022/07/13 13:35:09;;;;;;;2.72;1.30;;;;;;;31.15;26.39;100280.69;5051714;28;20376;-79
2022/07/13 13:37:34;;;;;;;4.47;1.30;;;;;;;31.19;25.73;100275.34;5034336;28;20041;-79
2022/07/13 13:40:00;;;;;;;1.85;1.33;;;;;;;31.42;25.82;100270.31;5034380;28;20132;-81
2022/07/13 13:42:26;;;;;;;4.32;1.33;;;;;;;31.45;25.61;100269.16;5051806;28;20044;-80
2022/07/13 13:44:54;;;;;;;2.75;1.50;;;;;;;30.82;25.45;100258.91;5051917;28;20106;-80
2022/07/13 13:47:19;;;;;;;2.75;1.70;;;;;;;30.37;26.59;100268.97;5034201;28;20040;-79
2022/07/13 13:49:45;;;;;;;1.30;1.20;;;;;;;30.43;26.76;100263.88;5051444;28;20029;-81
2022/07/13 13:52:10;;;;;;;1.92;1.15;;;;;;;31.02;26.41;100278.03;5051619;28;20041;-78
2022/07/13 13:54:36;;;;;;;1.65;1.30;;;;;;;31.40;26.32;100267.25;5051932;28;20515;-80
2022/07/13 13:57:02;;;;;;;3.70;1.10;;;;;;;31.92;25.32;100270.53;5034008;28;20405;-79
2022/07/13 13:59:27;;;;;;;2.85;1.35;;;;;;;31.77;24.19;100268.50;5051637;28;20033;-79